Agua Dulce, California
Current Conditions -  °F | °C
As of 4:56 PM on Friday 31 Oct 2014 (Local Time) from KWJF Reporting Station
Clear Clear  
Wind Chill: 62°   Ceiling: Unl
Heat Index: 62°   Visibility: 10mi
Dew Point: 49°   Wind: 20mph
Humidity: 62%   Direction: 230°SW
Pressure: 29.82"   Gusts: 30mph
Location:  34.513°N, 118.402°W
Report Text: KWJF 312356Z 23017G26KT 10SM CLR 17/09 A2982 RMK AO2 PK WND 22033/2302 SLP093 T01670094 10194 20161 56018
Loading
Personal Weather Stations






























Interactive Weather Map
Tropical Storm Tracking
New forecast layout! Learn more

10-Day Weather Forecast

Advertisements
Track Severe Weather on mobile